sensor_id;sensor_type;location;lat;lon;timestamp;temperature;humidity
1888;DHT22;944;51.574;6.980;2024-02-04T00:01:50;9.90;99.90
1888;DHT22;944;51.574;6.980;2024-02-04T00:04:28;9.70;99.90
1888;DHT22;944;51.574;6.980;2024-02-04T00:07:00;10.10;99.90
1888;DHT22;944;51.574;6.980;2024-02-04T00:09:27;9.80;99.90
1888;DHT22;944;51.574;6.980;2024-02-04T00:11:57;10.00;99.90
1888;DHT22;944;51.574;6.980;2024-02-04T00:14:29;9.90;99.90
1888;DHT22;944;51.574;6.980;2024-02-04T00:16:56;9.90;99.90
1888;DHT22;944;51.574;6.980;2024-02-04T00:19:23;9.80;99.90
1888;DHT22;944;51.574;6.980;2024-02-04T00:21:50;9.90;99.90
1888;DHT22;944;51.574;6.980;2024-02-04T00:24:17;9.90;99.90
1888;DHT22;944;51.574;6.980;2024-02-04T00:26:44;9.90;99.90
1888;DHT22;944;51.574;6.980;2024-02-04T00:29:13;9.90;99.90
1888;DHT22;944;51.574;6.980;2024-02-04T00:31:40;9.90;99.90
1888;DHT22;944;51.574;6.980;2024-02-04T00:34:07;10.00;99.90
1888;DHT22;944;51.574;6.980;2024-02-04T00:36:35;9.90;99.90
1888;DHT22;944;51.574;6.980;2024-02-04T00:39:02;9.90;99.90
1888;DHT22;944;51.574;6.980;2024-02-04T00:41:29;9.90;99.90
1888;DHT22;944;51.574;6.980;2024-02-04T00:43:56;9.90;99.90
1888;DHT22;944;51.574;6.980;2024-02-04T00:46:25;9.90;99.90
1888;DHT22;944;51.574;6.980;2024-02-04T00:48:52;9.80;99.90
1888;DHT22;944;51.574;6.980;2024-02-04T00:51:19;9.80;99.90
1888;DHT22;944;51.574;6.980;2024-02-04T00:53:46;9.80;99.90
1888;DHT22;944;51.574;6.980;2024-02-04T00:56:13;9.80;99.90
1888;DHT22;944;51.574;6.980;2024-02-04T00:58:43;9.80;99.90
1888;DHT22;944;51.574;6.980;2024-02-04T01:01:10;9.60;99.90
1888;DHT22;944;51.574;6.980;2024-02-04T01:03:42;9.80;99.90
1888;DHT22;944;51.574;6.980;2024-02-04T01:06:13;9.70;99.90
1888;DHT22;944;51.574;6.980;2024-02-04T01:12:21;9.60;99.90
1888;DHT22;944;51.574;6.980;2024-02-04T01:14:48;9.60;99.90
1888;DHT22;944;51.574;6.980;2024-02-04T01:17:15;9.60;99.90
1888;DHT22;944;51.574;6.980;2024-02-04T01:51:07;9.60;99.90
1888;DHT22;944;51.574;6.980;2024-02-04T01:57:44;9.60;99.90
1888;DHT22;944;51.574;6.980;2024-02-04T02:00:18;9.60;99.90
1888;DHT22;944;51.574;6.980;2024-02-04T02:02:49;9.60;99.90
1888;DHT22;944;51.574;6.980;2024-02-04T02:05:16;9.60;99.90
1888;DHT22;944;51.574;6.980;2024-02-04T02:07:45;9.70;99.90
1888;DHT22;944;51.574;6.980;2024-02-04T02:10:16;9.60;99.90
1888;DHT22;944;51.574;6.980;2024-02-04T02:12:48;9.60;99.90
1888;DHT22;944;51.574;6.980;2024-02-04T02:15:26;9.60;99.90
1888;DHT22;944;51.574;6.980;2024-02-04T02:21:44;9.60;99.90
1888;DHT22;944;51.574;6.980;2024-02-04T02:24:46;9.70;99.90
1888;DHT22;944;51.574;6.980;2024-02-04T02:27:14;9.60;99.90
1888;DHT22;944;51.574;6.980;2024-02-04T02:29:41;9.60;99.90
1888;DHT22;944;51.574;6.980;2024-02-04T02:32:08;9.60;99.90
1888;DHT22;944;51.574;6.980;2024-02-04T02:35:09;9.70;99.90
1888;DHT22;944;51.574;6.980;2024-02-04T02:48:37;9.70;99.90
1888;DHT22;944;51.574;6.980;2024-02-04T02:54:18;9.70;99.90
1888;DHT22;944;51.574;6.980;2024-02-04T02:56:55;9.60;99.90
1888;DHT22;944;51.574;6.980;2024-02-04T02:59:29;9.80;99.90
1888;DHT22;944;51.574;6.980;2024-02-04T03:05:45;9.60;99.90
1888;DHT22;944;51.574;6.980;2024-02-04T03:12:11;9.60;99.90
1888;DHT22;944;51.574;6.980;2024-02-04T03:14:41;9.50;99.90
1888;DHT22;944;51.574;6.980;2024-02-04T03:17:10;9.60;99.90
1888;DHT22;944;51.574;6.980;2024-02-04T03:19:40;9.50;99.90
1888;DHT22;944;51.574;6.980;2024-02-04T03:22:15;9.60;99.90
1888;DHT22;944;51.574;6.980;2024-02-04T03:24:59;9.60;99.90
1888;DHT22;944;51.574;6.980;2024-02-04T03:27:37;9.60;99.90
1888;DHT22;944;51.574;6.980;2024-02-04T03:30:43;9.60;99.90
1888;DHT22;944;51.574;6.980;2024-02-04T04:03:41;9.50;99.90
1888;DHT22;944;51.574;6.980;2024-02-04T04:06:32;9.60;99.90
1888;DHT22;944;51.574;6.980;2024-02-04T04:09:11;9.50;99.90
1888;DHT22;944;51.574;6.980;2024-02-04T04:14:37;9.60;99.90
1888;DHT22;944;51.574;6.980;2024-02-04T06:37:12;9.60;99.90
1888;DHT22;944;51.574;6.980;2024-02-04T06:39:45;9.60;99.90
1888;DHT22;944;51.574;6.980;2024-02-04T06:42:30;9.60;99.90
1888;DHT22;944;51.574;6.980;2024-02-04T06:45:12;9.60;99.90
1888;DHT22;944;51.574;6.980;2024-02-04T06:48:03;9.70;99.90
1888;DHT22;944;51.574;6.980;2024-02-04T06:50:37;9.60;99.90
1888;DHT22;944;51.574;6.980;2024-02-04T06:53:25;9.60;99.90
1888;DHT22;944;51.574;6.980;2024-02-04T07:00:10;9.60;99.90
1888;DHT22;944;51.574;6.980;2024-02-04T07:02:54;9.50;99.90
1888;DHT22;944;51.574;6.980;2024-02-04T07:05:30;9.70;99.90
1888;DHT22;944;51.574;6.980;2024-02-04T07:08:02;9.70;99.90
1888;DHT22;944;51.574;6.980;2024-02-04T07:10:42;9.70;99.90
1888;DHT22;944;51.574;6.980;2024-02-04T07:13:22;9.70;99.90
1888;DHT22;944;51.574;6.980;2024-02-04T09:18:55;9.40;99.90
1888;DHT22;944;51.574;6.980;2024-02-04T09:21:37;9.30;99.90
1888;DHT22;944;51.574;6.980;2024-02-04T09:24:09;9.20;99.90
1888;DHT22;944;51.574;6.980;2024-02-04T09:26:48;9.20;99.90
1888;DHT22;944;51.574;6.980;2024-02-04T09:29:28;9.20;99.90
1888;DHT22;944;51.574;6.980;2024-02-04T09:42:10;9.10;99.90
1888;DHT22;944;51.574;6.980;2024-02-04T13:38:35;10.40;99.90
1888;DHT22;944;51.574;6.980;2024-02-04T13:44:49;10.40;99.90
1888;DHT22;944;51.574;6.980;2024-02-04T13:47:18;10.40;99.90
1888;DHT22;944;51.574;6.980;2024-02-04T13:49:52;10.40;99.90
1888;DHT22;944;51.574;6.980;2024-02-04T13:52:26;10.40;99.90
1888;DHT22;944;51.574;6.980;2024-02-04T13:55:08;10.40;99.90
1888;DHT22;944;51.574;6.980;2024-02-04T13:57:35;10.40;99.90
1888;DHT22;944;51.574;6.980;2024-02-04T14:00:16;10.40;99.90
1888;DHT22;944;51.574;6.980;2024-02-04T14:02:44;10.40;99.90
1888;DHT22;944;51.574;6.980;2024-02-04T14:08:54;10.40;99.90
1888;DHT22;944;51.574;6.980;2024-02-04T14:11:25;10.40;99.90
1888;DHT22;944;51.574;6.980;2024-02-04T14:13:55;10.30;99.90
1888;DHT22;944;51.574;6.980;2024-02-04T14:16:23;10.30;99.90
1888;DHT22;944;51.574;6.980;2024-02-04T14:18:59;10.30;99.90
1888;DHT22;944;51.574;6.980;2024-02-04T14:25:12;10.30;99.90
1888;DHT22;944;51.574;6.980;2024-02-04T14:27:48;10.30;99.90
1888;DHT22;944;51.574;6.980;2024-02-04T14:30:18;10.20;99.90
1888;DHT22;944;51.574;6.980;2024-02-04T14:32:46;10.30;99.90
1888;DHT22;944;51.574;6.980;2024-02-04T14:35:29;10.10;99.90
1888;DHT22;944;51.574;6.980;2024-02-04T14:38:00;10.30;99.90
1888;DHT22;944;51.574;6.980;2024-02-04T14:40:35;10.20;99.90
1888;DHT22;944;51.574;6.980;2024-02-04T14:43:05;10.20;99.90
1888;DHT22;944;51.574;6.980;2024-02-04T14:45:32;10.20;99.90
1888;DHT22;944;51.574;6.980;2024-02-04T14:48:00;10.20;99.90
1888;DHT22;944;51.574;6.980;2024-02-04T14:50:29;10.20;99.90
1888;DHT22;944;51.574;6.980;2024-02-04T14:53:00;10.20;99.90
1888;DHT22;944;51.574;6.980;2024-02-04T14:55:27;10.20;99.90
1888;DHT22;944;51.574;6.980;2024-02-04T14:58:01;10.10;99.90
1888;DHT22;944;51.574;6.980;2024-02-04T15:00:32;10.20;99.90
1888;DHT22;944;51.574;6.980;2024-02-04T15:02:59;10.20;99.90
1888;DHT22;944;51.574;6.980;2024-02-04T15:05:32;10.20;99.90
1888;DHT22;944;51.574;6.980;2024-02-04T15:08:08;10.20;99.90
1888;DHT22;944;51.574;6.980;2024-02-04T15:10:44;10.20;99.90
1888;DHT22;944;51.574;6.980;2024-02-04T15:16:20;10.20;99.90
1888;DHT22;944;51.574;6.980;2024-02-04T15:18:53;10.20;99.90
1888;DHT22;944;51.574;6.980;2024-02-04T15:21:24;10.20;99.90
1888;DHT22;944;51.574;6.980;2024-02-04T15:24:07;10.20;99.90
1888;DHT22;944;51.574;6.980;2024-02-04T15:26:42;10.10;99.90
1888;DHT22;944;51.574;6.980;2024-02-04T15:29:11;10.20;99.90
1888;DHT22;944;51.574;6.980;2024-02-04T15:34:56;10.20;99.90
1888;DHT22;944;51.574;6.980;2024-02-04T15:37:30;10.00;99.90
1888;DHT22;944;51.574;6.980;2024-02-04T15:40:00;10.20;99.90
1888;DHT22;944;51.574;6.980;2024-02-04T15:42:29;10.10;99.90
1888;DHT22;944;51.574;6.980;2024-02-04T15:45:02;10.20;99.90
1888;DHT22;944;51.574;6.980;2024-02-04T15:47:47;10.30;99.90
1888;DHT22;944;51.574;6.980;2024-02-04T15:50:19;10.20;99.90
1888;DHT22;944;51.574;6.980;2024-02-04T15:52:51;10.20;99.90
1888;DHT22;944;51.574;6.980;2024-02-04T15:55:23;10.20;99.90
1888;DHT22;944;51.574;6.980;2024-02-04T15:57:54;10.20;99.90
1888;DHT22;944;51.574;6.980;2024-02-04T16:00:30;10.20;99.90
1888;DHT22;944;51.574;6.980;2024-02-04T16:03:08;10.00;99.90
1888;DHT22;944;51.574;6.980;2024-02-04T16:05:36;10.10;99.90
1888;DHT22;944;51.574;6.980;2024-02-04T16:08:08;10.20;99.90
1888;DHT22;944;51.574;6.980;2024-02-04T16:10:37;10.20;99.90
1888;DHT22;944;51.574;6.980;2024-02-04T16:13:07;10.20;99.90
1888;DHT22;944;51.574;6.980;2024-02-04T16:15:38;10.20;99.90
1888;DHT22;944;51.574;6.980;2024-02-04T16:18:08;10.20;99.90
1888;DHT22;944;51.574;6.980;2024-02-04T16:20:35;10.20;99.90
1888;DHT22;944;51.574;6.980;2024-02-04T16:23:05;10.20;99.90
1888;DHT22;944;51.574;6.980;2024-02-04T16:25:36;10.30;99.90
1888;DHT22;944;51.574;6.980;2024-02-04T16:28:04;10.20;99.90
1888;DHT22;944;51.574;6.980;2024-02-04T16:30:31;10.20;99.90
1888;DHT22;944;51.574;6.980;2024-02-04T16:32:59;10.20;99.90
1888;DHT22;944;51.574;6.980;2024-02-04T16:35:27;10.20;99.90
1888;DHT22;944;51.574;6.980;2024-02-04T16:37:54;10.20;99.90
1888;DHT22;944;51.574;6.980;2024-02-04T16:40:22;10.00;99.90
1888;DHT22;944;51.574;6.980;2024-02-04T16:42:49;10.10;99.90
1888;DHT22;944;51.574;6.980;2024-02-04T16:45:17;10.10;99.90
1888;DHT22;944;51.574;6.980;2024-02-04T16:47:44;10.10;99.90
1888;DHT22;944;51.574;6.980;2024-02-04T16:50:11;10.10;99.90
1888;DHT22;944;51.574;6.980;2024-02-04T16:52:40;10.10;99.90
1888;DHT22;944;51.574;6.980;2024-02-04T16:55:07;10.10;99.90
1888;DHT22;944;51.574;6.980;2024-02-04T16:57:36;10.10;99.90
1888;DHT22;944;51.574;6.980;2024-02-04T17:00:04;10.10;99.90
1888;DHT22;944;51.574;6.980;2024-02-04T17:02:34;10.10;99.90
1888;DHT22;944;51.574;6.980;2024-02-04T17:08:44;10.10;99.90
1888;DHT22;944;51.574;6.980;2024-02-04T17:11:16;10.10;99.90
1888;DHT22;944;51.574;6.980;2024-02-04T17:13:52;10.10;99.90
1888;DHT22;944;51.574;6.980;2024-02-04T17:16:29;10.10;99.90
1888;DHT22;944;51.574;6.980;2024-02-04T17:19:08;10.10;99.90
1888;DHT22;944;51.574;6.980;2024-02-04T17:57:47;10.00;99.90
